Flight Track Log - Related Links

Times and Time Zones

All times are in EDT time to prevent confusion due to time zone crossing. See the N960DL flight status page for this flight to view local times or setup timezone preferences in your user account.

Time Position Orientation Groundspeed Altitude Reporting Facility
EDT Latitude Longitude Course Direction KTS MPH feet Rate Location/Type
Fri 07:40:41 AM 33.6264 -84.5028 53° Northeast 446 513 3,200  Level Atlanta Center
Fri 07:41:41 AM 33.5947 -84.5700 241° Southwest 333 383 6,600 3,102 Climbing Atlanta Center
Fri 07:42:00 AM 33.7507 -83.9767 54° Northeast  Level FlightAware Approximate
Fri 07:42:39 AM 33.5333 -84.5833 190° South 242 278 9,300  Level Atlanta TRACON
Fri 07:43:00 AM 33.8264 -83.8506 54° Northeast  Level FlightAware Approximate
Fri 07:44:00 AM 33.9072 -83.7293 48° Northeast  Level FlightAware Approximate
Fri 07:44:41 AM 33.4492 -84.4744 133° Southeast 255 293 13,600  Level Atlanta Center
Fri 07:45:00 AM 33.9859 -83.6057 53° Northeast  Level FlightAware Approximate
Fri 07:45:41 AM 33.4558 -84.3525 86° East 303 349 14,800  Level Atlanta Center
Fri 07:46:00 AM 34.0635 -83.4809 53° Northeast  Level FlightAware Approximate
Fri 07:46:41 AM 33.5103 -84.2306 62° Northeast 387 445 16,600  Level Atlanta Center
Fri 07:47:41 AM 33.6250 -84.1636 26° Northeast 388 447 18,900 2,250 Climbing Atlanta Center
Fri 07:48:41 AM 33.7358 -84.0814 32° Northeast 433 498 21,100 2,000 Climbing Atlanta Center
Fri 07:49:41 AM 33.8089 -83.9464 57° Northeast 474 545 22,900 1,650 Climbing Atlanta Center
Fri 07:50:41 AM 33.8797 -83.8061 59° Northeast 479 551 24,400 1,500 Climbing Atlanta Center
Fri 07:51:41 AM 33.9606 -83.6681 55° Northeast 493 567 25,900 1,550 Climbing Atlanta Center
Fri 07:52:41 AM 34.0478 -83.5275 53° Northeast 515 593 27,500 1,400 Climbing Atlanta Center
Fri 07:53:41 AM 34.1244 -83.4064 53° Northeast 515 593 28,700 750 Climbing Atlanta Center
Fri 07:54:41 AM 34.2092 -83.2703 53° Northeast 509 586 29,000 150 Climbing Atlanta Center
Fri 07:55:41 AM 34.2981 -83.1336 52° Northeast 509 586 29,000  Level Atlanta Center
Fri 07:56:41 AM 34.3825 -82.9942 54° Northeast 508 585 29,000  Level Atlanta Center
Fri 07:57:41 AM 34.4647 -82.8547 54° Northeast 508 585 29,000  Level Atlanta Center
Fri 07:58:41 AM 34.5489 -82.7222 52° Northeast 508 585 29,000  Level Atlanta Center
Fri 07:59:41 AM 34.6392 -82.5769 53° Northeast 503 579 29,000  Level Atlanta Center
Fri 08:00:41 AM 34.7231 -82.4364 54° Northeast 503 579 29,000 300 Level Atlanta Center
Fri 08:01:41 AM 34.8067 -82.3008 53° Northeast 503 579 29,600 1,000 Climbing Atlanta Center
Fri 08:02:41 AM 34.8903 -82.1675 53° Northeast 503 579 31,000 1,350 Climbing Atlanta Center
Fri 08:03:41 AM 34.9592 -82.0442 56° Northeast 497 572 32,300 1,000 Climbing Atlanta Center
Fri 08:04:41 AM 35.0383 -81.9131 54° Northeast 486 559 33,000 350 Climbing Atlanta Center
Fri 08:05:41 AM 35.1192 -81.7636 56° Northeast 480 552 33,000  Level Atlanta Center
Fri 08:06:41 AM 35.1917 -81.6244 57° Northeast 480 552 33,000  Level Atlanta Center
Fri 08:07:41 AM 35.2642 -81.4875 57° Northeast 480 552 33,000  Level Atlanta Center
Fri 08:08:41 AM 35.3381 -81.3453 57° Northeast 488 562 33,000  Level Atlanta Center
Fri 08:09:41 AM 35.4081 -81.2053 58° Northeast 488 562 33,000  Level Atlanta Center
Fri 08:10:41 AM 35.4839 -81.0597 57° Northeast 488 562 33,000  Level Atlanta Center
Fri 08:11:41 AM 35.5597 -80.9217 56° Northeast 493 567 33,000  Level Atlanta Center
Fri 08:12:41 AM 35.6333 -80.7783 58° Northeast 493 567 33,000  Level Atlanta Center
Fri 08:13:41 AM 35.7047 -80.6425 57° Northeast 488 562 33,000  Level Atlanta Center
Fri 08:14:41 AM 35.7778 -80.5014 57° Northeast 488 562 33,000 -388 Level Atlanta Center
Fri 08:16:31 AM 35.9092 -80.2439 58° Northeast 498 573 31,900 -882 Descending Washington Center
Fri 08:17:31 AM 35.9769 -80.1069 59° Northeast 485 558 30,500 -1,450 Descending Washington Center
Fri 08:18:31 AM 36.0508 -79.9750 55° Northeast 462 532 29,000 -750 Descending Washington Center
Fri 08:19:31 AM 36.1267 -79.8350 56° Northeast 473 544 29,000 -250 Level Washington Center
Fri 08:20:31 AM 36.1936 -79.7100 56° Northeast 479 551 28,500 -900 Descending Washington Center
Fri 08:21:31 AM 36.2781 -79.5600 55° Northeast 484 557 27,200 -1,400 Descending Washington Center
Fri 08:22:31 AM 36.3575 -79.4247 54° Northeast 484 557 25,700 -1,400 Descending Washington Center
Fri 08:23:31 AM 36.4242 -79.2989 57° Northeast 479 551 24,400 -1,700 Descending Washington Center
Fri 08:24:31 AM 36.5058 -79.1553 55° Northeast 474 545 22,300 -1,700 Descending Washington Center
Fri 08:25:31 AM 36.5783 -79.0319 54° Northeast 467 537 21,000 -1,300 Descending Washington Center
Fri 08:26:31 AM 36.6506 -78.9058 54° Northeast 452 520 19,700 -1,000 Descending Washington Center
Fri 08:27:31 AM 36.7169 -78.7711 58° Northeast 452 520 19,000 -350 Descending Washington Center
Fri 08:28:31 AM 36.7803 -78.6572 55° Northeast 447 514 19,000  Level Washington Center
Fri 08:29:31 AM 36.8503 -78.5300 55° Northeast 447 514 19,000  Level Washington Center
Fri 08:30:31 AM 36.9244 -78.3953 55° Northeast 436 502 19,000 -600 Level Washington Center
Fri 08:31:31 AM 36.9961 -78.2706 54° Northeast 436 502 17,800 -1,750 Descending Washington Center
Fri 08:32:31 AM 37.0506 -78.1683 56° Northeast 436 502 15,500 -2,800 Descending Washington Center
Fri 08:33:31 AM 37.1203 -78.0300 58° Northeast 436 502 12,200 -2,750 Descending Washington Center
Fri 08:34:31 AM 37.1872 -77.9094 55° Northeast 436 502 10,000 -1,250 Descending Washington Center
Fri 08:35:31 AM 37.2456 -77.8017 56° Northeast 412 474 9,700 -750 Descending Washington Center
Fri 08:36:31 AM 37.2975 -77.7039 56° Northeast 368 423 8,500 -1,300 Descending Washington Center
Fri 08:37:31 AM 37.3469 -77.6114 56° Northeast 333 383 7,100 -1,550 Descending Washington Center
Fri 08:38:31 AM 37.4228 -77.5661 25° Northeast 293 337 5,400 -1,400 Descending Washington Center
Fri 08:39:31 AM 37.5067 -77.5500 North 282 325 4,300 -700 Descending Washington Center
Fri 08:40:31 AM 37.5861 -77.5364 North 282 325 4,000 -548 Descending Washington Center
Fri 08:42:48 AM 37.7000 -77.4833 20° North 199 229 2,500 -457 Descending Potomac TRACON
Fri 08:43:48 AM 37.6667 -77.4500 142° Southeast 156 180 2,500  Level Potomac TRACON
Fri 08:44:48 AM 37.6333 -77.4167 142° Southeast 156 180 2,500  Level Potomac TRACON

Login

Don't have an account? Register now (free) for customized features, flight alerts, and more!